sensor_id;sensor_type;location;lat;lon;timestamp;P1;durP1;ratioP1;P2;durP2;ratioP2
42670;SDS011;28283;55.426;37.756;2022-08-21T00:01:19;50.85;;;33.22;;
42670;SDS011;28283;55.426;37.756;2022-08-21T00:06:24;47.97;;;33.35;;
42670;SDS011;28283;55.426;37.756;2022-08-21T00:11:25;51.97;;;35.95;;
42670;SDS011;28283;55.426;37.756;2022-08-21T00:16:27;50.55;;;36.65;;
42670;SDS011;28283;55.426;37.756;2022-08-21T00:21:27;51.97;;;36.92;;
42670;SDS011;28283;55.426;37.756;2022-08-21T00:26:28;55.15;;;38.53;;
42670;SDS011;28283;55.426;37.756;2022-08-21T00:31:29;56.22;;;40.08;;
42670;SDS011;28283;55.426;37.756;2022-08-21T00:36:30;60.28;;;42.03;;
42670;SDS011;28283;55.426;37.756;2022-08-21T00:41:30;60.78;;;43.92;;
42670;SDS011;28283;55.426;37.756;2022-08-21T00:46:31;65.40;;;45.35;;
42670;SDS011;28283;55.426;37.756;2022-08-21T00:51:51;62.15;;;44.45;;
42670;SDS011;28283;55.426;37.756;2022-08-21T00:56:57;64.25;;;46.85;;
42670;SDS011;28283;55.426;37.756;2022-08-21T01:02:01;62.15;;;46.28;;
42670;SDS011;28283;55.426;37.756;2022-08-21T01:07:04;65.00;;;46.65;;
42670;SDS011;28283;55.426;37.756;2022-08-21T01:12:05;62.40;;;45.97;;
42670;SDS011;28283;55.426;37.756;2022-08-21T01:17:06;68.90;;;46.70;;
42670;SDS011;28283;55.426;37.756;2022-08-21T01:22:08;66.50;;;45.28;;
42670;SDS011;28283;55.426;37.756;2022-08-21T01:27:10;63.67;;;44.90;;
42670;SDS011;28283;55.426;37.756;2022-08-21T01:32:12;62.33;;;43.60;;
42670;SDS011;28283;55.426;37.756;2022-08-21T01:37:15;55.47;;;40.25;;
42670;SDS011;28283;55.426;37.756;2022-08-21T01:42:17;55.72;;;40.72;;
42670;SDS011;28283;55.426;37.756;2022-08-21T01:47:18;54.90;;;38.40;;
42670;SDS011;28283;55.426;37.756;2022-08-21T01:52:18;53.25;;;36.75;;
42670;SDS011;28283;55.426;37.756;2022-08-21T01:57:19;47.17;;;34.10;;
42670;SDS011;28283;55.426;37.756;2022-08-21T02:02:20;51.00;;;33.55;;
42670;SDS011;28283;55.426;37.756;2022-08-21T02:07:21;52.95;;;32.25;;
42670;SDS011;28283;55.426;37.756;2022-08-21T02:12:22;46.75;;;31.38;;
42670;SDS011;28283;55.426;37.756;2022-08-21T02:17:22;41.15;;;30.02;;
42670;SDS011;28283;55.426;37.756;2022-08-21T02:22:23;46.10;;;29.35;;
42670;SDS011;28283;55.426;37.756;2022-08-21T02:27:24;43.63;;;30.25;;
42670;SDS011;28283;55.426;37.756;2022-08-21T02:37:26;42.90;;;28.67;;
42670;SDS011;28283;55.426;37.756;2022-08-21T02:42:27;42.35;;;27.88;;
42670;SDS011;28283;55.426;37.756;2022-08-21T02:47:28;40.50;;;28.00;;
42670;SDS011;28283;55.426;37.756;2022-08-21T02:52:29;35.65;;;25.38;;
42670;SDS011;28283;55.426;37.756;2022-08-21T02:57:29;39.57;;;26.07;;
42670;SDS011;28283;55.426;37.756;2022-08-21T03:02:32;35.05;;;23.63;;
42670;SDS011;28283;55.426;37.756;2022-08-21T03:07:35;39.60;;;24.20;;
42670;SDS011;28283;55.426;37.756;2022-08-21T03:12:36;33.63;;;21.10;;
42670;SDS011;28283;55.426;37.756;2022-08-21T03:17:37;31.38;;;19.70;;
42670;SDS011;28283;55.426;37.756;2022-08-21T03:22:38;26.30;;;20.77;;
42670;SDS011;28283;55.426;37.756;2022-08-21T03:27:39;28.73;;;18.92;;
42670;SDS011;28283;55.426;37.756;2022-08-21T03:32:39;28.95;;;18.67;;
42670;SDS011;28283;55.426;37.756;2022-08-21T03:37:41;26.38;;;16.98;;
42670;SDS011;28283;55.426;37.756;2022-08-21T03:42:42;27.73;;;16.25;;
42670;SDS011;28283;55.426;37.756;2022-08-21T03:53:01;19.95;;;14.93;;
42670;SDS011;28283;55.426;37.756;2022-08-21T03:58:02;25.70;;;17.15;;
42670;SDS011;28283;55.426;37.756;2022-08-21T04:03:03;20.45;;;14.63;;
42670;SDS011;28283;55.426;37.756;2022-08-21T04:08:04;19.52;;;13.80;;
42670;SDS011;28283;55.426;37.756;2022-08-21T04:13:06;20.42;;;14.93;;
42670;SDS011;28283;55.426;37.756;2022-08-21T04:18:09;25.27;;;15.68;;
42670;SDS011;28283;55.426;37.756;2022-08-21T04:23:10;19.85;;;14.63;;
42670;SDS011;28283;55.426;37.756;2022-08-21T04:28:10;22.50;;;14.77;;
42670;SDS011;28283;55.426;37.756;2022-08-21T04:33:11;22.73;;;15.27;;
42670;SDS011;28283;55.426;37.756;2022-08-21T04:38:12;28.67;;;16.15;;
42670;SDS011;28283;55.426;37.756;2022-08-21T04:43:12;25.67;;;16.33;;
42670;SDS011;28283;55.426;37.756;2022-08-21T04:48:14;28.67;;;18.15;;
42670;SDS011;28283;55.426;37.756;2022-08-21T04:53:18;25.10;;;18.40;;
42670;SDS011;28283;55.426;37.756;2022-08-21T04:58:33;24.25;;;16.70;;
42670;SDS011;28283;55.426;37.756;2022-08-21T05:03:37;26.10;;;16.63;;
42670;SDS011;28283;55.426;37.756;2022-08-21T05:13:40;24.40;;;16.77;;
42670;SDS011;28283;55.426;37.756;2022-08-21T05:18:41;25.25;;;17.05;;
42670;SDS011;28283;55.426;37.756;2022-08-21T05:23:42;24.10;;;16.42;;
42670;SDS011;28283;55.426;37.756;2022-08-21T05:28:43;25.42;;;15.07;;
42670;SDS011;28283;55.426;37.756;2022-08-21T05:33:44;20.80;;;13.85;;
42670;SDS011;28283;55.426;37.756;2022-08-21T05:43:45;18.67;;;12.93;;
42670;SDS011;28283;55.426;37.756;2022-08-21T05:53:46;18.65;;;11.93;;
42670;SDS011;28283;55.426;37.756;2022-08-21T05:58:47;17.65;;;11.63;;
42670;SDS011;28283;55.426;37.756;2022-08-21T06:08:48;17.55;;;11.07;;
42670;SDS011;28283;55.426;37.756;2022-08-21T06:13:49;15.65;;;11.50;;
42670;SDS011;28283;55.426;37.756;2022-08-21T06:18:50;19.15;;;11.80;;
42670;SDS011;28283;55.426;37.756;2022-08-21T06:23:50;18.30;;;12.27;;
42670;SDS011;28283;55.426;37.756;2022-08-21T06:33:52;17.95;;;12.55;;
42670;SDS011;28283;55.426;37.756;2022-08-21T06:38:53;19.90;;;12.65;;
42670;SDS011;28283;55.426;37.756;2022-08-21T06:43:54;18.00;;;12.32;;
42670;SDS011;28283;55.426;37.756;2022-08-21T06:48:56;21.33;;;13.13;;
42670;SDS011;28283;55.426;37.756;2022-08-21T06:53:57;22.33;;;12.32;;
42670;SDS011;28283;55.426;37.756;2022-08-21T06:58:58;17.10;;;11.27;;
42670;SDS011;28283;55.426;37.756;2022-08-21T07:03:59;18.42;;;12.32;;
42670;SDS011;28283;55.426;37.756;2022-08-21T07:09:00;19.90;;;12.98;;
42670;SDS011;28283;55.426;37.756;2022-08-21T07:14:01;17.73;;;12.75;;
42670;SDS011;28283;55.426;37.756;2022-08-21T07:19:02;21.85;;;11.73;;
42670;SDS011;28283;55.426;37.756;2022-08-21T07:24:03;19.95;;;11.88;;
42670;SDS011;28283;55.426;37.756;2022-08-21T07:29:04;19.33;;;12.32;;
42670;SDS011;28283;55.426;37.756;2022-08-21T07:34:05;19.83;;;13.20;;
42670;SDS011;28283;55.426;37.756;2022-08-21T07:39:06;19.77;;;12.38;;
42670;SDS011;28283;55.426;37.756;2022-08-21T07:44:08;20.88;;;12.23;;
42670;SDS011;28283;55.426;37.756;2022-08-21T07:49:08;20.17;;;12.57;;
42670;SDS011;28283;55.426;37.756;2022-08-21T07:54:09;17.55;;;12.15;;
42670;SDS011;28283;55.426;37.756;2022-08-21T07:59:10;16.00;;;11.38;;
42670;SDS011;28283;55.426;37.756;2022-08-21T08:04:11;17.02;;;10.63;;
42670;SDS011;28283;55.426;37.756;2022-08-21T08:09:12;17.38;;;10.75;;
42670;SDS011;28283;55.426;37.756;2022-08-21T08:14:13;14.10;;;9.32;;
42670;SDS011;28283;55.426;37.756;2022-08-21T08:19:15;17.13;;;6.47;;
42670;SDS011;28283;55.426;37.756;2022-08-21T08:24:16;13.65;;;7.95;;
42670;SDS011;28283;55.426;37.756;2022-08-21T08:29:17;13.05;;;9.85;;
42670;SDS011;28283;55.426;37.756;2022-08-21T08:34:17;13.63;;;9.55;;
42670;SDS011;28283;55.426;37.756;2022-08-21T08:39:19;12.73;;;9.30;;
42670;SDS011;28283;55.426;37.756;2022-08-21T08:44:20;19.02;;;9.48;;
42670;SDS011;28283;55.426;37.756;2022-08-21T08:49:34;13.93;;;8.52;;
42670;SDS011;28283;55.426;37.756;2022-08-21T08:54:44;17.33;;;8.48;;
42670;SDS011;28283;55.426;37.756;2022-08-21T08:59:50;10.10;;;6.90;;
42670;SDS011;28283;55.426;37.756;2022-08-21T09:04:55;12.02;;;7.80;;
42670;SDS011;28283;55.426;37.756;2022-08-21T09:20:35;11.77;;;5.80;;
42670;SDS011;28283;55.426;37.756;2022-08-21T09:26:29;8.63;;;4.80;;
42670;SDS011;28283;55.426;37.756;2022-08-21T09:36:25;6.57;;;3.20;;
42670;SDS011;28283;55.426;37.756;2022-08-21T09:41:37;11.90;;;3.88;;
42670;SDS011;28283;55.426;37.756;2022-08-21T09:46:49;7.88;;;4.20;;
42670;SDS011;28283;55.426;37.756;2022-08-21T09:51:52;6.28;;;3.63;;
42670;SDS011;28283;55.426;37.756;2022-08-21T09:56:56;7.13;;;2.72;;
42670;SDS011;28283;55.426;37.756;2022-08-21T10:07:22;5.68;;;1.33;;
42670;SDS011;28283;55.426;37.756;2022-08-21T10:12:28;4.72;;;1.50;;
42670;SDS011;28283;55.426;37.756;2022-08-21T10:23:17;4.70;;;1.20;;
42670;SDS011;28283;55.426;37.756;2022-08-21T10:28:35;5.70;;;1.15;;
42670;SDS011;28283;55.426;37.756;2022-08-21T10:34:05;6.20;;;0.93;;
42670;SDS011;28283;55.426;37.756;2022-08-21T10:39:33;3.40;;;0.70;;
42670;SDS011;28283;55.426;37.756;2022-08-21T10:50:16;5.10;;;0.90;;
42670;SDS011;28283;55.426;37.756;2022-08-21T10:55:35;2.78;;;1.02;;
42670;SDS011;28283;55.426;37.756;2022-08-21T11:00:45;4.38;;;0.88;;
42670;SDS011;28283;55.426;37.756;2022-08-21T11:05:52;3.97;;;0.82;;
42670;SDS011;28283;55.426;37.756;2022-08-21T11:11:12;3.60;;;0.90;;
42670;SDS011;28283;55.426;37.756;2022-08-21T11:26:48;12.07;;;1.35;;
42670;SDS011;28283;55.426;37.756;2022-08-21T11:37:03;8.40;;;1.27;;
42670;SDS011;28283;55.426;37.756;2022-08-21T11:42:37;10.70;;;1.63;;
42670;SDS011;28283;55.426;37.756;2022-08-21T11:53:02;19.58;;;2.17;;
42670;SDS011;28283;55.426;37.756;2022-08-21T11:58:21;10.05;;;1.90;;
42670;SDS011;28283;55.426;37.756;2022-08-21T12:14:23;16.83;;;2.40;;
42670;SDS011;28283;55.426;37.756;2022-08-21T12:29:32;11.70;;;2.25;;
42670;SDS011;28283;55.426;37.756;2022-08-21T12:34:47;12.93;;;2.03;;
42670;SDS011;28283;55.426;37.756;2022-08-21T12:39:58;12.13;;;1.87;;
42670;SDS011;28283;55.426;37.756;2022-08-21T12:45:08;9.90;;;2.38;;
42670;SDS011;28283;55.426;37.756;2022-08-21T12:50:20;11.63;;;2.05;;
42670;SDS011;28283;55.426;37.756;2022-08-21T12:55:27;7.95;;;1.50;;
42670;SDS011;28283;55.426;37.756;2022-08-21T13:00:30;8.65;;;1.52;;
42670;SDS011;28283;55.426;37.756;2022-08-21T13:05:33;10.50;;;2.15;;
42670;SDS011;28283;55.426;37.756;2022-08-21T13:10:36;9.13;;;1.98;;
42670;SDS011;28283;55.426;37.756;2022-08-21T13:15:39;10.57;;;1.85;;
42670;SDS011;28283;55.426;37.756;2022-08-21T13:20:41;10.43;;;2.28;;
42670;SDS011;28283;55.426;37.756;2022-08-21T13:25:42;8.70;;;1.10;;
42670;SDS011;28283;55.426;37.756;2022-08-21T13:30:50;8.52;;;1.45;;
42670;SDS011;28283;55.426;37.756;2022-08-21T13:40:58;6.28;;;0.73;;
42670;SDS011;28283;55.426;37.756;2022-08-21T13:46:06;9.82;;;1.17;;
42670;SDS011;28283;55.426;37.756;2022-08-21T13:51:10;4.38;;;1.33;;
42670;SDS011;28283;55.426;37.756;2022-08-21T13:56:21;8.05;;;1.83;;
42670;SDS011;28283;55.426;37.756;2022-08-21T14:01:30;2.60;;;0.80;;
42670;SDS011;28283;55.426;37.756;2022-08-21T14:06:35;6.47;;;1.05;;
42670;SDS011;28283;55.426;37.756;2022-08-21T14:11:37;7.97;;;2.17;;
42670;SDS011;28283;55.426;37.756;2022-08-21T14:16:44;9.43;;;1.27;;
42670;SDS011;28283;55.426;37.756;2022-08-21T14:21:47;6.85;;;1.38;;
42670;SDS011;28283;55.426;37.756;2022-08-21T14:27:01;9.93;;;0.98;;
42670;SDS011;28283;55.426;37.756;2022-08-21T14:32:37;8.52;;;1.42;;
42670;SDS011;28283;55.426;37.756;2022-08-21T14:37:41;11.23;;;1.48;;
42670;SDS011;28283;55.426;37.756;2022-08-21T14:42:43;6.43;;;1.70;;
42670;SDS011;28283;55.426;37.756;2022-08-21T14:47:44;8.05;;;2.40;;
42670;SDS011;28283;55.426;37.756;2022-08-21T14:52:45;8.23;;;1.98;;
42670;SDS011;28283;55.426;37.756;2022-08-21T14:57:48;11.55;;;2.95;;
42670;SDS011;28283;55.426;37.756;2022-08-21T15:02:51;6.03;;;2.72;;
42670;SDS011;28283;55.426;37.756;2022-08-21T15:07:52;10.23;;;3.03;;
42670;SDS011;28283;55.426;37.756;2022-08-21T15:12:53;9.30;;;2.75;;
42670;SDS011;28283;55.426;37.756;2022-08-21T15:17:54;6.82;;;2.67;;
42670;SDS011;28283;55.426;37.756;2022-08-21T15:22:54;6.53;;;2.67;;
42670;SDS011;28283;55.426;37.756;2022-08-21T15:27:55;12.15;;;2.88;;
42670;SDS011;28283;55.426;37.756;2022-08-21T15:32:57;7.43;;;2.40;;
42670;SDS011;28283;55.426;37.756;2022-08-21T15:37:57;7.53;;;2.88;;
42670;SDS011;28283;55.426;37.756;2022-08-21T15:42:59;5.93;;;2.50;;
42670;SDS011;28283;55.426;37.756;2022-08-21T15:48:01;8.82;;;1.58;;
42670;SDS011;28283;55.426;37.756;2022-08-21T15:53:04;9.23;;;2.10;;
42670;SDS011;28283;55.426;37.756;2022-08-21T15:58:06;6.35;;;1.73;;
42670;SDS011;28283;55.426;37.756;2022-08-21T16:03:07;4.20;;;1.90;;
42670;SDS011;28283;55.426;37.756;2022-08-21T16:08:11;9.02;;;1.92;;
42670;SDS011;28283;55.426;37.756;2022-08-21T16:13:20;8.05;;;1.67;;
42670;SDS011;28283;55.426;37.756;2022-08-21T16:18:27;13.50;;;2.08;;
42670;SDS011;28283;55.426;37.756;2022-08-21T16:23:28;8.15;;;1.48;;
42670;SDS011;28283;55.426;37.756;2022-08-21T16:28:29;8.15;;;1.40;;
42670;SDS011;28283;55.426;37.756;2022-08-21T16:33:37;10.35;;;1.30;;
42670;SDS011;28283;55.426;37.756;2022-08-21T16:38:42;9.48;;;1.55;;
42670;SDS011;28283;55.426;37.756;2022-08-21T16:43:43;4.95;;;1.77;;
42670;SDS011;28283;55.426;37.756;2022-08-21T16:48:47;6.68;;;1.23;;
42670;SDS011;28283;55.426;37.756;2022-08-21T16:53:49;6.18;;;1.73;;
42670;SDS011;28283;55.426;37.756;2022-08-21T16:58:51;4.65;;;1.77;;
42670;SDS011;28283;55.426;37.756;2022-08-21T17:03:53;7.63;;;1.88;;
42670;SDS011;28283;55.426;37.756;2022-08-21T17:08:54;3.95;;;1.60;;
42670;SDS011;28283;55.426;37.756;2022-08-21T17:13:56;6.25;;;1.88;;
42670;SDS011;28283;55.426;37.756;2022-08-21T17:18:59;5.57;;;1.85;;
42670;SDS011;28283;55.426;37.756;2022-08-21T17:23:59;4.28;;;1.52;;
42670;SDS011;28283;55.426;37.756;2022-08-21T17:29:00;3.85;;;1.02;;
42670;SDS011;28283;55.426;37.756;2022-08-21T17:34:01;4.90;;;1.40;;
42670;SDS011;28283;55.426;37.756;2022-08-21T17:39:02;5.72;;;1.20;;
42670;SDS011;28283;55.426;37.756;2022-08-21T17:44:05;6.88;;;1.50;;
42670;SDS011;28283;55.426;37.756;2022-08-21T17:49:09;4.65;;;1.30;;
42670;SDS011;28283;55.426;37.756;2022-08-21T17:54:10;3.67;;;1.02;;
42670;SDS011;28283;55.426;37.756;2022-08-21T17:59:11;6.30;;;1.88;;
42670;SDS011;28283;55.426;37.756;2022-08-21T18:04:13;4.05;;;1.10;;
42670;SDS011;28283;55.426;37.756;2022-08-21T18:09:15;3.58;;;1.23;;
42670;SDS011;28283;55.426;37.756;2022-08-21T18:14:25;5.22;;;1.58;;
42670;SDS011;28283;55.426;37.756;2022-08-21T18:19:28;5.82;;;1.40;;
42670;SDS011;28283;55.426;37.756;2022-08-21T18:29:30;4.63;;;1.63;;
42670;SDS011;28283;55.426;37.756;2022-08-21T18:39:38;4.80;;;1.45;;
42670;SDS011;28283;55.426;37.756;2022-08-21T18:49:43;7.90;;;1.50;;
42670;SDS011;28283;55.426;37.756;2022-08-21T18:59:44;8.32;;;1.77;;
42670;SDS011;28283;55.426;37.756;2022-08-21T19:04:45;8.25;;;1.48;;
42670;SDS011;28283;55.426;37.756;2022-08-21T19:09:49;5.68;;;0.90;;
42670;SDS011;28283;55.426;37.756;2022-08-21T19:14:51;1.95;;;1.10;;
42670;SDS011;28283;55.426;37.756;2022-08-21T19:19:53;6.55;;;1.20;;
42670;SDS011;28283;55.426;37.756;2022-08-21T19:24:58;5.88;;;1.52;;
42670;SDS011;28283;55.426;37.756;2022-08-21T19:35:00;6.20;;;1.53;;
42670;SDS011;28283;55.426;37.756;2022-08-21T19:45:03;5.75;;;1.52;;
42670;SDS011;28283;55.426;37.756;2022-08-21T19:50:06;3.28;;;0.98;;
42670;SDS011;28283;55.426;37.756;2022-08-21T19:55:07;2.05;;;0.88;;
42670;SDS011;28283;55.426;37.756;2022-08-21T20:00:09;4.55;;;1.55;;
42670;SDS011;28283;55.426;37.756;2022-08-21T20:05:12;3.33;;;1.38;;
42670;SDS011;28283;55.426;37.756;2022-08-21T20:15:02;3.15;;;1.20;;
42670;SDS011;28283;55.426;37.756;2022-08-21T20:20:03;4.30;;;1.33;;
42670;SDS011;28283;55.426;37.756;2022-08-21T20:25:05;1.92;;;1.40;;
42670;SDS011;28283;55.426;37.756;2022-08-21T20:30:15;5.72;;;1.35;;
42670;SDS011;28283;55.426;37.756;2022-08-21T20:35:29;8.75;;;1.73;;
42670;SDS011;28283;55.426;37.756;2022-08-21T20:45:32;5.45;;;1.63;;
42670;SDS011;28283;55.426;37.756;2022-08-21T20:50:41;10.50;;;2.17;;
42670;SDS011;28283;55.426;37.756;2022-08-21T20:55:47;3.58;;;1.85;;
42670;SDS011;28283;55.426;37.756;2022-08-21T21:00:49;5.57;;;2.38;;
42670;SDS011;28283;55.426;37.756;2022-08-21T21:11:02;4.50;;;1.00;;
42670;SDS011;28283;55.426;37.756;2022-08-21T21:16:11;6.28;;;1.33;;
42670;SDS011;28283;55.426;37.756;2022-08-21T21:21:23;4.78;;;2.15;;
42670;SDS011;28283;55.426;37.756;2022-08-21T21:26:30;2.88;;;1.20;;
42670;SDS011;28283;55.426;37.756;2022-08-21T21:31:36;2.63;;;1.25;;
42670;SDS011;28283;55.426;37.756;2022-08-21T21:47:22;4.78;;;1.08;;
42670;SDS011;28283;55.426;37.756;2022-08-21T22:03:14;2.22;;;1.15;;
42670;SDS011;28283;55.426;37.756;2022-08-21T22:08:30;5.38;;;1.55;;
42670;SDS011;28283;55.426;37.756;2022-08-21T22:13:52;4.10;;;0.80;;
42670;SDS011;28283;55.426;37.756;2022-08-21T22:19:05;6.85;;;1.38;;
42670;SDS011;28283;55.426;37.756;2022-08-21T22:24:29;4.07;;;1.30;;
42670;SDS011;28283;55.426;37.756;2022-08-21T22:29:42;4.35;;;1.25;;
42670;SDS011;28283;55.426;37.756;2022-08-21T22:40:26;8.35;;;1.15;;
42670;SDS011;28283;55.426;37.756;2022-08-21T22:45:35;5.70;;;1.50;;
42670;SDS011;28283;55.426;37.756;2022-08-21T22:56:31;3.28;;;1.38;;
42670;SDS011;28283;55.426;37.756;2022-08-21T23:01:44;2.58;;;1.20;;
42670;SDS011;28283;55.426;37.756;2022-08-21T23:06:59;2.17;;;1.15;;
42670;SDS011;28283;55.426;37.756;2022-08-21T23:12:05;5.90;;;0.90;;
42670;SDS011;28283;55.426;37.756;2022-08-21T23:17:36;2.60;;;1.15;;
42670;SDS011;28283;55.426;37.756;2022-08-21T23:44:31;4.88;;;1.25;;
42670;SDS011;28283;55.426;37.756;2022-08-21T23:50:04;5.28;;;1.58;;
42670;SDS011;28283;55.426;37.756;2022-08-21T23:55:27;2.05;;;1.45;;
